createdAt,value
2016-06-08T00:00:09.978Z,94.8
2016-06-08T00:00:19.995Z,95.3
2016-06-08T00:00:29.995Z,94.9
2016-06-08T00:00:39.995Z,95.1
2016-06-08T00:00:50.011Z,95.3
2016-06-08T00:00:59.995Z,95
2016-06-08T00:01:09.980Z,95.4
2016-06-08T00:01:19.968Z,95.3
2016-06-08T00:01:30.015Z,95.8
2016-06-08T00:01:40.312Z,95.6
2016-06-08T00:01:50.281Z,95.9
2016-06-08T00:01:59.984Z,96
2016-06-08T00:02:10.031Z,96.1
2016-06-08T00:02:20.001Z,96.1
2016-06-08T00:02:29.970Z,96.2
2016-06-08T00:02:39.970Z,96.5
2016-06-08T00:02:50.001Z,95.9
2016-06-08T00:02:59.955Z,96.4
2016-06-08T00:03:09.970Z,96.4
2016-06-08T00:03:19.972Z,96.7
2016-06-08T00:03:29.957Z,96
2016-06-08T00:03:39.972Z,96.3
2016-06-08T00:03:49.941Z,96.3
2016-06-08T00:04:00.441Z,96
2016-06-08T00:04:10.019Z,96
2016-06-08T00:04:19.991Z,96.2
2016-06-08T00:04:29.944Z,96.6
2016-06-08T00:04:39.928Z,96.6
2016-06-08T00:04:49.960Z,96.3
2016-06-08T00:05:00.225Z,96
2016-06-08T00:05:09.944Z,95.9
2016-06-08T00:05:19.916Z,95.8
2016-06-08T00:05:29.916Z,95.6
2016-06-08T00:05:39.900Z,95.2
2016-06-08T00:05:49.931Z,95.7
2016-06-08T00:05:59.916Z,95.2
2016-06-08T00:06:09.900Z,95.2
2016-06-08T00:06:19.762Z,94.9
2016-06-08T00:06:29.762Z,95.1
2016-06-08T00:06:39.887Z,95.3
2016-06-08T00:06:49.887Z,95.3
2016-06-08T00:06:59.903Z,95.2
2016-06-08T00:07:09.919Z,95.2
2016-06-08T00:07:19.874Z,95.4
2016-06-08T00:07:29.889Z,95.1
2016-06-08T00:07:39.889Z,95.1
2016-06-08T00:07:49.593Z,95
2016-06-08T00:07:59.874Z,95
2016-06-08T00:08:09.905Z,95.1
2016-06-08T00:08:19.892Z,94.9
2016-06-08T00:08:29.877Z,95.3
2016-06-08T00:08:39.861Z,95.8
2016-06-08T00:08:49.877Z,95.5
2016-06-08T00:09:00.158Z,95.9
2016-06-08T00:09:09.861Z,95.3
2016-06-08T00:09:19.849Z,95.2
2016-06-08T00:09:29.864Z,94.9
2016-06-08T00:09:39.849Z,94.7
2016-06-08T00:09:49.849Z,94.8
2016-06-08T00:09:59.849Z,95.2
2016-06-08T00:10:09.864Z,95.3
2016-06-08T00:10:19.851Z,95.1
2016-06-08T00:10:29.851Z,95.1
2016-06-08T00:10:39.835Z,95.3
2016-06-08T00:10:49.851Z,95
2016-06-08T00:10:59.694Z,95.2
2016-06-08T00:11:10.335Z,95.2
2016-06-08T00:11:19.682Z,95.2
2016-06-08T00:11:29.979Z,95.2
2016-06-08T00:11:40.869Z,95.3
2016-06-08T00:11:49.822Z,95.4
2016-06-08T00:12:00.963Z,95.3
2016-06-08T00:12:10.416Z,95.3
2016-06-08T00:12:20.356Z,95.4
2016-06-08T00:12:29.856Z,95.2
2016-06-08T00:12:39.824Z,94.8
2016-06-08T00:12:49.824Z,95
2016-06-08T00:12:59.824Z,95
2016-06-08T00:13:09.793Z,95
2016-06-08T00:13:19.812Z,94.9
2016-06-08T00:13:29.796Z,94.9
2016-06-08T00:13:39.812Z,95.1
2016-06-08T00:13:49.796Z,94.9
2016-06-08T00:13:59.796Z,95.7
2016-06-08T00:14:09.780Z,95.4
2016-06-08T00:14:20.096Z,96
2016-06-08T00:14:29.799Z,96
2016-06-08T00:14:39.877Z,96
2016-06-08T00:14:49.799Z,95.6
2016-06-08T00:14:59.783Z,95.6
2016-06-08T00:15:09.783Z,95.5
2016-06-08T00:15:19.771Z,95.7
2016-06-08T00:15:29.771Z,95.1
2016-06-08T00:15:39.802Z,95.2
2016-06-08T00:15:49.771Z,94.7
2016-06-08T00:15:59.771Z,95.3
2016-06-08T00:16:09.771Z,95.3
2016-06-08T00:16:19.774Z,95.1
2016-06-08T00:16:29.743Z,95.8
2016-06-08T00:16:39.758Z,95.6
2016-06-08T00:16:49.774Z,95.5
2016-06-08T00:16:59.789Z,95.7
2016-06-08T00:17:09.758Z,95.7
2016-06-08T00:17:19.745Z,95.2
2016-06-08T00:17:29.745Z,95.3
2016-06-08T00:17:39.760Z,95.2
2016-06-08T00:17:49.729Z,95.7
2016-06-08T00:17:59.729Z,95.5
2016-06-08T00:18:09.729Z,95.4
2016-06-08T00:18:19.732Z,95.6
2016-06-08T00:18:29.763Z,95.7
2016-06-08T00:18:39.576Z,95.2
2016-06-08T00:18:49.748Z,95.9
2016-06-08T00:18:59.748Z,96.1
2016-06-08T00:19:09.732Z,95.9
2016-06-08T00:19:19.734Z,95.7
2016-06-08T00:19:29.703Z,95.8
2016-06-08T00:19:39.750Z,95.1
2016-06-08T00:19:49.703Z,95.2
2016-06-08T00:19:59.703Z,94.8
2016-06-08T00:20:09.687Z,95.1
2016-06-08T00:20:19.706Z,95.3
2016-06-08T00:20:29.721Z,95.4
2016-06-08T00:20:39.706Z,94.9
2016-06-08T00:20:49.706Z,95.1
2016-06-08T00:20:59.690Z,95.3
2016-06-08T00:21:09.674Z,95.4
2016-06-08T00:21:19.693Z,95.5
2016-06-08T00:21:29.693Z,95.7
2016-06-08T00:21:39.709Z,96
2016-06-08T00:21:49.677Z,95.5
2016-06-08T00:21:59.974Z,95.8
2016-06-08T00:22:09.677Z,95.9
2016-06-08T00:22:19.680Z,95.6
2016-06-08T00:22:29.680Z,95.8
2016-06-08T00:22:39.680Z,95.5
2016-06-08T00:22:49.665Z,95.6
2016-06-08T00:22:59.649Z,95.8
2016-06-08T00:23:09.665Z,95.4
2016-06-08T00:23:19.698Z,95.8
2016-06-08T00:23:29.651Z,95.7
2016-06-08T00:23:39.667Z,95.7
2016-06-08T00:23:49.636Z,95.9
2016-06-08T00:23:59.636Z,95.8
2016-06-08T00:24:09.651Z,95.2
2016-06-08T00:24:19.669Z,95.1
2016-06-08T00:24:29.638Z,95.1
2016-06-08T00:24:39.638Z,95.3
2016-06-08T00:24:49.622Z,95.2
2016-06-08T00:24:59.669Z,95.2
2016-06-08T00:25:09.622Z,95.2
2016-06-08T00:25:19.642Z,95.3
2016-06-08T00:25:29.626Z,95.3
2016-06-08T00:25:39.485Z,95.1
2016-06-08T00:25:49.657Z,94.7
2016-06-08T00:26:00.001Z,95.1
2016-06-08T00:26:09.642Z,95.1
2016-06-08T00:26:20.034Z,95.1
2016-06-08T00:26:29.878Z,95.1
2016-06-08T00:26:40.737Z,95.1
2016-06-08T00:26:49.347Z,94.9
2016-06-08T00:27:00.831Z,95.2
2016-06-08T00:27:10.487Z,95.3
2016-06-08T00:27:20.209Z,95.3
2016-06-08T00:27:29.600Z,95.1
2016-06-08T00:27:39.459Z,95
2016-06-08T00:27:49.615Z,95.1
2016-06-08T00:27:59.897Z,95.3
2016-06-08T00:28:09.584Z,95.4
2016-06-08T00:28:19.617Z,95.8
2016-06-08T00:28:29.586Z,95.6
2016-06-08T00:28:39.633Z,95.5
2016-06-08T00:28:49.586Z,95.6
2016-06-08T00:28:59.570Z,95.6
2016-06-08T00:29:09.555Z,95.7
2016-06-08T00:29:19.683Z,95.7
2016-06-08T00:29:29.573Z,95.7
2016-06-08T00:29:39.573Z,95.5
2016-06-08T00:29:49.558Z,95.3
2016-06-08T00:29:59.558Z,95.9
2016-06-08T00:30:09.558Z,95.4
2016-06-08T00:30:19.545Z,95.6
2016-06-08T00:30:29.561Z,95.5
2016-06-08T00:30:39.405Z,95.7
2016-06-08T00:30:49.545Z,95.5
2016-06-08T00:30:59.576Z,95.5
2016-06-08T00:31:09.545Z,95.7
2016-06-08T00:31:19.392Z,95.7
2016-06-08T00:31:29.533Z,95
2016-06-08T00:31:39.533Z,95.1
2016-06-08T00:31:49.517Z,95.1
2016-06-08T00:31:59.564Z,95
2016-06-08T00:32:09.517Z,95.1
2016-06-08T00:32:19.551Z,95.8
2016-06-08T00:32:29.520Z,95.9
2016-06-08T00:32:39.536Z,95.6
2016-06-08T00:32:49.536Z,95.5
2016-06-08T00:32:59.551Z,95.7
2016-06-08T00:33:09.504Z,95.7
2016-06-08T00:33:19.600Z,95.6
2016-06-08T00:33:29.506Z,95.4
2016-06-08T00:33:39.444Z,95.7
2016-06-08T00:33:49.522Z,95.4
2016-06-08T00:33:59.506Z,95.9
2016-06-08T00:34:09.491Z,95.5
2016-06-08T00:34:19.509Z,95.4
2016-06-08T00:34:29.478Z,95.7
2016-06-08T00:34:39.494Z,95.7
2016-06-08T00:34:49.587Z,95.6
2016-06-08T00:34:59.509Z,95.7
2016-06-08T00:35:09.509Z,95.5
2016-06-08T00:35:19.543Z,95.9
2016-06-08T00:35:29.480Z,95.2
2016-06-08T00:35:39.464Z,95.1
2016-06-08T00:35:49.324Z,95.2
2016-06-08T00:35:59.480Z,95.1
2016-06-08T00:36:09.527Z,95.1
2016-06-08T00:36:19.483Z,95.2
2016-06-08T00:36:29.452Z,95.2
2016-06-08T00:36:39.483Z,95.1
2016-06-08T00:36:49.546Z,95.1
2016-06-08T00:36:59.452Z,95.2
2016-06-08T00:37:09.514Z,95.3
2016-06-08T00:37:19.502Z,95.1
2016-06-08T00:37:29.502Z,95.3
2016-06-08T00:37:39.455Z,95.5
2016-06-08T00:37:49.455Z,95.8
2016-06-08T00:37:59.455Z,95.7
2016-06-08T00:38:09.517Z,95.7
2016-06-08T00:38:19.363Z,95.3
2016-06-08T00:38:29.426Z,95.2
2016-06-08T00:38:39.488Z,94.9
2016-06-08T00:38:49.457Z,95.7
2016-06-08T00:38:59.426Z,95.9
2016-06-08T00:39:09.426Z,96
2016-06-08T00:39:19.273Z,96.1
2016-06-08T00:39:29.445Z,95.6
2016-06-08T00:39:39.414Z,96
2016-06-08T00:39:49.430Z,95.5
2016-06-08T00:39:59.476Z,95.3
2016-06-08T00:40:09.414Z,95.7
2016-06-08T00:40:19.432Z,95.2
2016-06-08T00:40:29.103Z,95.5
2016-06-08T00:40:39.416Z,95.7
2016-06-08T00:40:49.478Z,96
2016-06-08T00:40:59.416Z,96.1
2016-06-08T00:41:10.010Z,95.9
2016-06-08T00:41:20.513Z,96.4
2016-06-08T00:41:30.622Z,96.3
2016-06-08T00:41:40.091Z,96
2016-06-08T00:41:50.169Z,96.3
2016-06-08T00:42:00.200Z,96.3
2016-06-08T00:42:09.716Z,96
2016-06-08T00:42:19.250Z,96.3
2016-06-08T00:42:29.375Z,96.9
2016-06-08T00:42:39.375Z,96.5
2016-06-08T00:42:49.422Z,96.6
2016-06-08T00:42:59.375Z,96.6
2016-06-08T00:43:09.359Z,96.6
2016-06-08T00:43:19.377Z,96.7
2016-06-08T00:43:29.455Z,96
2016-06-08T00:43:39.361Z,96
2016-06-08T00:43:49.361Z,96.1
2016-06-08T00:43:59.393Z,96.4
2016-06-08T00:44:09.424Z,96.1
2016-06-08T00:44:19.349Z,95.8
2016-06-08T00:44:29.349Z,96.1
2016-06-08T00:44:39.349Z,95.9
2016-06-08T00:44:49.349Z,96.5
2016-06-08T00:44:59.349Z,96.4
2016-06-08T00:45:09.349Z,96.3
2016-06-08T00:45:19.335Z,96.2
2016-06-08T00:45:29.398Z,96
2016-06-08T00:45:39.210Z,96.6
2016-06-08T00:45:49.320Z,96.7
2016-06-08T00:45:59.320Z,96.9
2016-06-08T00:46:09.335Z,97.1
2016-06-08T00:46:19.307Z,96.7
2016-06-08T00:46:29.323Z,96.6
2016-06-08T00:46:39.307Z,97.4
2016-06-08T00:46:49.369Z,97.4
2016-06-08T00:46:59.307Z,97.1
2016-06-08T00:47:09.307Z,96.9
2016-06-08T00:47:19.169Z,97.6
2016-06-08T00:47:29.138Z,97.7
2016-06-08T00:47:39.310Z,97.4
2016-06-08T00:47:49.310Z,97.4
2016-06-08T00:47:59.310Z,97.3
2016-06-08T00:48:09.357Z,96.8
2016-06-08T00:48:19.297Z,97
2016-06-08T00:48:29.282Z,96.8
2016-06-08T00:48:39.297Z,96.8
2016-06-08T00:48:49.329Z,97
2016-06-08T00:48:59.282Z,97.1
2016-06-08T00:49:09.282Z,96.6
2016-06-08T00:49:19.284Z,96.7
2016-06-08T00:49:29.315Z,96.6
2016-06-08T00:49:39.299Z,96.6
2016-06-08T00:49:49.284Z,96.2
2016-06-08T00:49:59.268Z,96
2016-06-08T00:50:09.268Z,96.1
2016-06-08T00:50:19.287Z,96.4
2016-06-08T00:50:29.271Z,96.2
2016-06-08T00:50:39.287Z,96.1
2016-06-08T00:50:49.318Z,95.8
2016-06-08T00:50:59.255Z,95.9
2016-06-08T00:51:09.255Z,96.1
2016-06-08T00:51:19.257Z,96
2016-06-08T00:51:29.242Z,96.4
2016-06-08T00:51:39.101Z,96.5
2016-06-08T00:51:49.242Z,96.1
2016-06-08T00:51:59.242Z,96.6
2016-06-08T00:52:09.242Z,97.1
2016-06-08T00:52:19.229Z,96.7
2016-06-08T00:52:29.089Z,96.7
2016-06-08T00:52:39.089Z,96.9
2016-06-08T00:52:49.073Z,96.6
2016-06-08T00:52:59.214Z,96.5
2016-06-08T00:53:09.214Z,96.6
2016-06-08T00:53:19.217Z,96.6
2016-06-08T00:53:29.248Z,96.1
2016-06-08T00:53:39.217Z,95.9
2016-06-08T00:53:49.279Z,96.2
2016-06-08T00:53:59.201Z,96.1
2016-06-08T00:54:09.232Z,96.3
2016-06-08T00:54:19.203Z,96.4
2016-06-08T00:54:29.187Z,96.6
2016-06-08T00:54:39.203Z,96.2
2016-06-08T00:54:49.265Z,95.9
2016-06-08T00:54:59.172Z,96.4
2016-06-08T00:55:09.203Z,95.8
2016-06-08T00:55:19.191Z,96.1
2016-06-08T00:55:29.207Z,95.9
2016-06-08T00:55:39.207Z,96.7
2016-06-08T00:55:49.191Z,96.6
2016-06-08T00:55:59.191Z,95.9
2016-06-08T00:56:09.629Z,95.8
2016-06-08T00:56:20.600Z,96.2
2016-06-08T00:56:29.193Z,96.8
2016-06-08T00:56:39.178Z,96.7
2016-06-08T00:56:49.475Z,97
2016-06-08T00:56:59.615Z,96.8
2016-06-08T00:57:09.021Z,97.3
2016-06-08T00:57:19.181Z,97.5
2016-06-08T00:57:29.228Z,96.9
2016-06-08T00:57:39.149Z,97.1
2016-06-08T00:57:49.181Z,97.1
2016-06-08T00:57:59.071Z,97.3
2016-06-08T00:58:09.196Z,96.9
2016-06-08T00:58:19.199Z,96.5
2016-06-08T00:58:29.152Z,96
2016-06-08T00:58:39.137Z,96.1
2016-06-08T00:58:49.137Z,96.5
2016-06-08T00:58:59.152Z,96
2016-06-08T00:59:09.137Z,96.5
2016-06-08T00:59:19.139Z,95.9
2016-06-08T00:59:29.154Z,96.1
2016-06-08T00:59:39.123Z,96
2016-06-08T00:59:49.170Z,95.6
2016-06-08T00:59:59.123Z,95.4
2016-06-08T01:00:09.123Z,95.1
2016-06-08T01:00:19.111Z,95
2016-06-08T01:00:29.126Z,95.3
2016-06-08T01:00:39.111Z,95.4
2016-06-08T01:00:49.142Z,95
2016-06-08T01:00:59.111Z,95.1
2016-06-08T01:01:09.142Z,94.6
2016-06-08T01:01:19.097Z,95.2
2016-06-08T01:01:29.159Z,95.2
2016-06-08T01:01:39.113Z,95.4
2016-06-08T01:01:49.144Z,95.5
2016-06-08T01:01:59.081Z,95.2
2016-06-08T01:02:09.144Z,94.9
2016-06-08T01:02:19.084Z,95
2016-06-08T01:02:29.131Z,94.9
2016-06-08T01:02:39.084Z,95
2016-06-08T01:02:49.069Z,95.1
2016-06-08T01:02:59.069Z,95
2016-06-08T01:03:09.162Z,95
2016-06-08T01:03:19.103Z,94.9
2016-06-08T01:03:29.072Z,95.1
2016-06-08T01:03:39.056Z,94.8
2016-06-08T01:03:49.072Z,94.9
2016-06-08T01:03:59.056Z,95.3
2016-06-08T01:04:09.103Z,95.4
2016-06-08T01:04:19.059Z,95.1
2016-06-08T01:04:28.903Z,95.3
2016-06-08T01:04:39.043Z,95.1
2016-06-08T01:04:49.106Z,94.7
2016-06-08T01:04:59.028Z,95.1
2016-06-08T01:05:09.043Z,95.4
2016-06-08T01:05:19.030Z,95.2
2016-06-08T01:05:29.045Z,95
2016-06-08T01:05:39.014Z,95.1
2016-06-08T01:05:49.045Z,95.1
2016-06-08T01:05:58.905Z,95.4
2016-06-08T01:06:09.030Z,95
2016-06-08T01:06:19.017Z,95.3
2016-06-08T01:06:29.111Z,95.3
2016-06-08T01:06:39.002Z,95.2
2016-06-08T01:06:49.048Z,95.2
2016-06-08T01:06:59.048Z,95.1
2016-06-08T01:07:09.033Z,95.2
2016-06-08T01:07:19.035Z,95.6
2016-06-08T01:07:29.004Z,95.6
2016-06-08T01:07:39.035Z,95.5
2016-06-08T01:07:49.019Z,95.6
2016-06-08T01:07:59.004Z,95.7
2016-06-08T01:08:09.019Z,95.5
2016-06-08T01:08:19.022Z,95.6
2016-06-08T01:08:29.007Z,95.6
2016-06-08T01:08:39.007Z,95.6
2016-06-08T01:08:48.866Z,95.8
2016-06-08T01:08:58.975Z,96
2016-06-08T01:09:08.991Z,96.2
2016-06-08T01:09:18.978Z,96.5
2016-06-08T01:09:28.853Z,97
2016-06-08T01:09:38.853Z,96.6
2016-06-08T01:09:48.681Z,96.7
2016-06-08T01:09:59.010Z,96.9
2016-06-08T01:10:08.681Z,96.8
2016-06-08T01:10:18.840Z,96
2016-06-08T01:10:28.840Z,96.4
2016-06-08T01:10:38.715Z,96.1
2016-06-08T01:10:48.980Z,95.9
2016-06-08T01:10:59.137Z,95.7
2016-06-08T01:11:08.840Z,95.6
2016-06-08T01:11:20.266Z,95.5
2016-06-08T01:11:28.844Z,95.5
2016-06-08T01:11:39.719Z,95.2
2016-06-08T01:11:49.391Z,95.1
2016-06-08T01:11:59.094Z,95.4
2016-06-08T01:12:09.391Z,95.4
2016-06-08T01:12:19.627Z,95
2016-06-08T01:12:29.455Z,95.4
2016-06-08T01:12:38.939Z,95.5
2016-06-08T01:12:48.955Z,95.4
2016-06-08T01:12:58.924Z,95.3
2016-06-08T01:13:08.939Z,95.1
2016-06-08T01:13:18.927Z,94.9
2016-06-08T01:13:28.974Z,94.9
2016-06-08T01:13:38.911Z,95.3
2016-06-08T01:13:48.927Z,95.6
2016-06-08T01:13:58.942Z,95.7
2016-06-08T01:14:08.911Z,95.6
2016-06-08T01:14:18.961Z,95.4
2016-06-08T01:14:28.914Z,95.6
2016-06-08T01:14:38.899Z,95.9
2016-06-08T01:14:48.914Z,95.7
2016-06-08T01:14:58.883Z,95.7
2016-06-08T01:15:08.945Z,95.6
2016-06-08T01:15:18.744Z,96
2016-06-08T01:15:28.885Z,95.9
2016-06-08T01:15:38.729Z,95.8
2016-06-08T01:15:48.901Z,95.8
2016-06-08T01:15:58.885Z,96
2016-06-08T01:16:08.885Z,96.1
2016-06-08T01:16:18.888Z,96
2016-06-08T01:16:28.888Z,95.9
2016-06-08T01:16:38.716Z,95.5
2016-06-08T01:16:48.872Z,95.5
2016-06-08T01:16:58.872Z,95.6
2016-06-08T01:17:08.747Z,95.7
2016-06-08T01:17:18.859Z,95.3
2016-06-08T01:17:28.859Z,95.2
2016-06-08T01:17:38.859Z,95.2
2016-06-08T01:17:48.734Z,95.1
2016-06-08T01:17:58.843Z,95.1
2016-06-08T01:18:08.843Z,95.1
2016-06-08T01:18:18.862Z,95
2016-06-08T01:18:28.846Z,95.1
2016-06-08T01:18:38.830Z,95.1
2016-06-08T01:18:48.721Z,95.2
2016-06-08T01:18:58.830Z,95.2
2016-06-08T01:19:08.830Z,95.2
2016-06-08T01:19:18.833Z,95
2016-06-08T01:19:28.818Z,94.9
2016-06-08T01:19:38.833Z,95.3
2016-06-08T01:19:48.880Z,95.3
2016-06-08T01:19:58.833Z,95.2
2016-06-08T01:20:08.818Z,95.3
2016-06-08T01:20:18.868Z,95.3
2016-06-08T01:20:28.836Z,95.1
2016-06-08T01:20:38.665Z,94.8
2016-06-08T01:20:48.852Z,95.2
2016-06-08T01:20:58.805Z,94.8
2016-06-08T01:21:08.821Z,94.9
2016-06-08T01:21:18.807Z,95.2
2016-06-08T01:21:28.823Z,95.1
2016-06-08T01:21:38.635Z,95.5
2016-06-08T01:21:48.807Z,95.4
2016-06-08T01:21:58.776Z,95.2
2016-06-08T01:22:08.792Z,95.6
2016-06-08T01:22:18.795Z,95.4
2016-06-08T01:22:28.810Z,95.2
2016-06-08T01:22:38.779Z,95.3
2016-06-08T01:22:48.779Z,95.2
2016-06-08T01:22:58.763Z,95.1
2016-06-08T01:23:08.779Z,95.2
2016-06-08T01:23:18.782Z,95.6
2016-06-08T01:23:28.766Z,95.2
2016-06-08T01:23:38.766Z,95.6
2016-06-08T01:23:48.844Z,95.1
2016-06-08T01:23:58.782Z,95.4
2016-06-08T01:24:08.782Z,95.8
2016-06-08T01:24:18.753Z,95.9
2016-06-08T01:24:28.800Z,95.7
2016-06-08T01:24:38.753Z,95.9
2016-06-08T01:24:48.753Z,95.7
2016-06-08T01:24:58.753Z,96
2016-06-08T01:25:08.753Z,95.8
2016-06-08T01:25:18.584Z,96
2016-06-08T01:25:28.740Z,96
2016-06-08T01:25:38.740Z,95.7
2016-06-08T01:25:48.740Z,95.7
2016-06-08T01:25:58.740Z,96
2016-06-08T01:26:08.771Z,95.9
2016-06-08T01:26:19.945Z,95.9
2016-06-08T01:26:28.695Z,95.8
2016-06-08T01:26:39.508Z,96.2
2016-06-08T01:26:48.601Z,95.8
2016-06-08T01:26:58.742Z,96.5
2016-06-08T01:27:08.867Z,96
2016-06-08T01:27:18.574Z,95.9
2016-06-08T01:27:28.777Z,95.8
2016-06-08T01:27:38.746Z,96
2016-06-08T01:27:48.746Z,95.9
2016-06-08T01:27:58.699Z,96.6
2016-06-08T01:28:08.824Z,96.5
2016-06-08T01:28:18.701Z,96.7
2016-06-08T01:28:28.701Z,96.2
2016-06-08T01:28:38.701Z,96
2016-06-08T01:28:48.779Z,96.2
2016-06-08T01:28:58.686Z,96.2
2016-06-08T01:29:08.717Z,96.1
2016-06-08T01:29:18.704Z,96.2
2016-06-08T01:29:28.735Z,96.3
2016-06-08T01:29:38.689Z,96.6
2016-06-08T01:29:48.735Z,96.1
2016-06-08T01:29:58.782Z,95.8
2016-06-08T01:30:08.673Z,96.1
2016-06-08T01:30:18.676Z,95.6
2016-06-08T01:30:28.676Z,95.7
2016-06-08T01:30:38.723Z,95.7
2016-06-08T01:30:48.738Z,95.7
2016-06-08T01:30:58.660Z,95.8
2016-06-08T01:31:08.660Z,95.6
2016-06-08T01:31:18.662Z,95.5
2016-06-08T01:31:28.694Z,95.5
2016-06-08T01:31:38.490Z,95.6
2016-06-08T01:31:48.694Z,95.6
2016-06-08T01:31:58.678Z,95.7
2016-06-08T01:32:08.678Z,95.4
2016-06-08T01:32:18.650Z,95.8
2016-06-08T01:32:28.634Z,95.6
2016-06-08T01:32:38.650Z,95.8
2016-06-08T01:32:48.665Z,95.7
2016-06-08T01:32:58.618Z,95.6
2016-06-08T01:33:08.650Z,95.6
2016-06-08T01:33:18.511Z,95.6
2016-06-08T01:33:28.699Z,95.7
2016-06-08T01:33:38.464Z,95.5
2016-06-08T01:33:48.620Z,95.5
2016-06-08T01:33:58.620Z,95.6
2016-06-08T01:34:08.620Z,95.9
2016-06-08T01:34:18.608Z,95.6
2016-06-08T01:34:28.623Z,95.6
2016-06-08T01:34:38.623Z,95.8
2016-06-08T01:34:48.670Z,95.6
2016-06-08T01:34:58.623Z,95.6
2016-06-08T01:35:08.623Z,95.5
2016-06-08T01:35:18.626Z,95.5
2016-06-08T01:35:28.626Z,95.6
2016-06-08T01:35:38.595Z,95.6
2016-06-08T01:35:48.595Z,95.6
2016-06-08T01:35:58.595Z,95.8
2016-06-08T01:36:08.626Z,95.6
2016-06-08T01:36:18.583Z,95.5
2016-06-08T01:36:28.614Z,95.8
2016-06-08T01:36:38.583Z,95.2
2016-06-08T01:36:48.426Z,94.8
2016-06-08T01:36:58.583Z,94.7
2016-06-08T01:37:08.567Z,95.5
2016-06-08T01:37:18.569Z,95
2016-06-08T01:37:28.678Z,95.2
2016-06-08T01:37:38.553Z,94.8
2016-06-08T01:37:48.569Z,94.7
2016-06-08T01:37:58.553Z,94.7
2016-06-08T01:38:08.553Z,94.1
2016-06-08T01:38:18.556Z,94.6
2016-06-08T01:38:28.603Z,94.8
2016-06-08T01:38:38.572Z,94.4
2016-06-08T01:38:48.556Z,94.9
2016-06-08T01:38:58.541Z,94.7
2016-06-08T01:39:08.525Z,94.7
2016-06-08T01:39:18.558Z,94.7
2016-06-08T01:39:28.590Z,94.8
2016-06-08T01:39:38.840Z,94.3
2016-06-08T01:39:48.527Z,94.3
2016-06-08T01:39:58.527Z,93.9
2016-06-08T01:40:08.527Z,94.2
2016-06-08T01:40:18.514Z,94.5
2016-06-08T01:40:28.546Z,94.4
2016-06-08T01:40:38.514Z,94.5
2016-06-08T01:40:48.561Z,94.3
2016-06-08T01:40:58.514Z,93.7
2016-06-08T01:41:08.514Z,94
2016-06-08T01:41:19.127Z,93.8
2016-06-08T01:41:29.221Z,93.8
2016-06-08T01:41:38.549Z,94.2
2016-06-08T01:41:48.924Z,94.1
2016-06-08T01:41:58.346Z,94
2016-06-08T01:42:08.455Z,94.1
2016-06-08T01:42:18.691Z,94.2
2016-06-08T01:42:28.707Z,94
2016-06-08T01:42:38.769Z,94
2016-06-08T01:42:48.488Z,93.8
2016-06-08T01:42:58.504Z,94
2016-06-08T01:43:08.394Z,94.6
2016-06-08T01:43:18.477Z,94.6
2016-06-08T01:43:28.508Z,94.1
2016-06-08T01:43:38.492Z,94.5
2016-06-08T01:43:48.461Z,94.5
2016-06-08T01:43:58.477Z,94.4
2016-06-08T01:44:08.477Z,94.5
2016-06-08T01:44:18.525Z,94.5
2016-06-08T01:44:28.463Z,94.5
2016-06-08T01:44:38.463Z,94.5
2016-06-08T01:44:48.463Z,94.6
2016-06-08T01:44:58.494Z,94.3
2016-06-08T01:45:08.479Z,94.3
2016-06-08T01:45:18.450Z,94.7
2016-06-08T01:45:28.466Z,94.6
2016-06-08T01:45:38.482Z,94.9
2016-06-08T01:45:48.435Z,95.1
2016-06-08T01:45:58.435Z,94.6
2016-06-08T01:46:08.435Z,95.3
2016-06-08T01:46:18.516Z,95.1
2016-06-08T01:46:28.438Z,95.4
2016-06-08T01:46:38.422Z,95.3
2016-06-08T01:46:48.313Z,95.1
2016-06-08T01:46:58.485Z,95.1
2016-06-08T01:47:08.406Z,95.8
2016-06-08T01:47:18.424Z,95.4
2016-06-08T01:47:28.440Z,95.6
2016-06-08T01:47:38.440Z,95.9
2016-06-08T01:47:48.424Z,96
2016-06-08T01:47:58.408Z,96.4
2016-06-08T01:48:08.408Z,96.1
2016-06-08T01:48:18.474Z,95.8
2016-06-08T01:48:28.411Z,95.9
2016-06-08T01:48:38.443Z,96
2016-06-08T01:48:48.396Z,95.8
2016-06-08T01:48:58.458Z,95.9
2016-06-08T01:49:08.380Z,96.1
2016-06-08T01:49:18.242Z,96.5
2016-06-08T01:49:28.413Z,95.9
2016-06-08T01:49:38.460Z,95.9
2016-06-08T01:49:48.367Z,96.1
2016-06-08T01:49:58.398Z,95.8
2016-06-08T01:50:08.242Z,96
2016-06-08T01:50:18.416Z,96
2016-06-08T01:50:28.385Z,95.5
2016-06-08T01:50:38.370Z,95.5
2016-06-08T01:50:48.385Z,95.4
2016-06-08T01:50:58.401Z,95.1
2016-06-08T01:51:08.213Z,95.1
2016-06-08T01:51:18.357Z,95.2
2016-06-08T01:51:28.216Z,95.2
2016-06-08T01:51:38.435Z,95.1
2016-06-08T01:51:48.357Z,94.9
2016-06-08T01:51:58.341Z,95.2
2016-06-08T01:52:08.341Z,95.2
2016-06-08T01:52:18.407Z,95.1
2016-06-08T01:52:28.360Z,95.5
2016-06-08T01:52:38.344Z,95.2
2016-06-08T01:52:48.329Z,94.7
2016-06-08T01:52:58.376Z,95
2016-06-08T01:53:08.329Z,95.3
2016-06-08T01:53:18.331Z,94.9
2016-06-08T01:53:28.331Z,95.1
2016-06-08T01:53:38.378Z,95.1
2016-06-08T01:53:48.315Z,94.9
2016-06-08T01:53:58.315Z,95.3
2016-06-08T01:54:08.315Z,95.3
2016-06-08T01:54:18.334Z,95.4
2016-06-08T01:54:28.318Z,94.9
2016-06-08T01:54:38.318Z,94.6
2016-06-08T01:54:48.302Z,94.9
2016-06-08T01:54:58.162Z,95.2
2016-06-08T01:55:08.349Z,95.2
2016-06-08T01:55:18.304Z,95.2
2016-06-08T01:55:28.304Z,95.2
2016-06-08T01:55:38.351Z,95.3
2016-06-08T01:55:48.320Z,95.1
2016-06-08T01:55:58.289Z,95.1
2016-06-08T01:56:08.289Z,95.4
2016-06-08T01:56:19.901Z,95.1
2016-06-08T01:56:28.807Z,95.1
2016-06-08T01:56:38.229Z,94.8
2016-06-08T01:56:48.636Z,94.8
2016-06-08T01:56:58.964Z,95.5
2016-06-08T01:57:08.198Z,95.2
2016-06-08T01:57:19.170Z,95.2
2016-06-08T01:57:29.060Z,95.6
2016-06-08T01:57:38.560Z,95.6
2016-06-08T01:57:48.389Z,95.6
2016-06-08T01:57:58.389Z,95.6
2016-06-08T01:58:08.248Z,95.5
2016-06-08T01:58:18.310Z,95.5
2016-06-08T01:58:28.282Z,95.5
2016-06-08T01:58:38.235Z,95.5
2016-06-08T01:58:48.251Z,95.5
2016-06-08T01:58:58.095Z,95.5
2016-06-08T01:59:08.235Z,95.6
2016-06-08T01:59:18.235Z,95.8
2016-06-08T01:59:28.238Z,95.4
2016-06-08T01:59:38.254Z,94.8
2016-06-08T01:59:48.254Z,95.2
2016-06-08T01:59:58.254Z,95.5
2016-06-08T02:00:08.270Z,94.7
2016-06-08T02:00:18.254Z,94.9
2016-06-08T02:00:28.209Z,94.9
2016-06-08T02:00:38.225Z,94.7
2016-06-08T02:00:48.209Z,94.6
2016-06-08T02:00:58.209Z,94.2
2016-06-08T02:01:08.209Z,94.6
2016-06-08T02:01:18.209Z,94.3
2016-06-08T02:01:28.228Z,94.2
2016-06-08T02:01:38.071Z,94.2
2016-06-08T02:01:48.196Z,94
2016-06-08T02:01:58.196Z,94.1
2016-06-08T02:02:08.196Z,94.2
2016-06-08T02:02:18.196Z,94.5
2016-06-08T02:02:28.199Z,93.8
2016-06-08T02:02:38.199Z,93.9
2016-06-08T02:02:48.199Z,94.1
2016-06-08T02:02:58.199Z,94
2016-06-08T02:03:08.168Z,93.7
2016-06-08T02:03:18.262Z,94
2016-06-08T02:03:28.186Z,94.2
2016-06-08T02:03:38.170Z,93.9
2016-06-08T02:03:48.186Z,94.3
2016-06-08T02:03:58.170Z,93.6
2016-06-08T02:04:08.170Z,93.3
2016-06-08T02:04:18.170Z,93.4
2016-06-08T02:04:28.173Z,93.8
2016-06-08T02:04:38.408Z,94.1
2016-06-08T02:04:48.158Z,93.9
2016-06-08T02:04:58.158Z,93.8
2016-06-08T02:05:08.142Z,93.8
2016-06-08T02:05:18.251Z,93.9
2016-06-08T02:05:28.144Z,94.6
2016-06-08T02:05:38.441Z,94.6
2016-06-08T02:05:48.175Z,94.6
2016-06-08T02:05:58.425Z,94.4
2016-06-08T02:06:08.128Z,94.4
2016-06-08T02:06:18.128Z,94.6
2016-06-08T02:06:28.131Z,94.6
2016-06-08T02:06:38.272Z,94.1
2016-06-08T02:06:48.116Z,94.1
2016-06-08T02:06:58.131Z,94.2
2016-06-08T02:07:08.116Z,94.5
2016-06-08T02:07:18.131Z,94.2
2016-06-08T02:07:28.119Z,94.6
2016-06-08T02:07:38.103Z,94
2016-06-08T02:07:48.103Z,94.1
2016-06-08T02:07:58.181Z,94.4
2016-06-08T02:08:08.103Z,94.1
2016-06-08T02:08:18.103Z,94.2
2016-06-08T02:08:28.153Z,94.4
2016-06-08T02:08:38.434Z,94.4
2016-06-08T02:08:48.090Z,94.6
2016-06-08T02:08:58.090Z,94.6
2016-06-08T02:09:08.106Z,94.7
2016-06-08T02:09:18.122Z,94.6
2016-06-08T02:09:28.077Z,94.2
2016-06-08T02:09:38.077Z,94.2
2016-06-08T02:09:48.077Z,94
2016-06-08T02:09:58.139Z,94.4
2016-06-08T02:10:08.077Z,94.2
2016-06-08T02:10:18.077Z,94.3
2016-06-08T02:10:28.064Z,94.4
2016-06-08T02:10:38.127Z,94
2016-06-08T02:10:48.080Z,94.2
2016-06-08T02:10:58.049Z,94.2
2016-06-08T02:11:08.064Z,94.1
2016-06-08T02:11:18.080Z,94.2
2016-06-08T02:11:28.410Z,94.2
2016-06-08T02:11:39.097Z,94.2
2016-06-08T02:11:48.082Z,94.5
2016-06-08T02:11:58.285Z,94.4
2016-06-08T02:12:08.347Z,94.7
2016-06-08T02:12:17.910Z,94.8
2016-06-08T02:12:28.070Z,94.8
2016-06-08T02:12:38.601Z,94.3
2016-06-08T02:12:48.211Z,94.8
2016-06-08T02:12:57.930Z,94.8
2016-06-08T02:13:08.039Z,94.4
2016-06-08T02:13:18.101Z,94.8
2016-06-08T02:13:28.041Z,94.6
2016-06-08T02:13:38.041Z,94.8
2016-06-08T02:13:48.025Z,95.1
2016-06-08T02:13:58.057Z,95